SAS7874 WADD-ESSA
Flight info
| Callsign | SAS7874 |
|---|---|
| Flight time | N/A |
| Altitude | 28000 |
| Route | BORGI DCT UDONO M635 RAFIS/N0515F300 M635 SURGA T23 JUNHA M635 VTK DCT VJB Y342 AROSO Y513 KALIL Y501 VIH R325 RINBA Y502 DUBAX R325 PUT L515 OBMOG M770 SADUS/N0511F320 M770 KAKID M875 BUTOP/N0499F340 M875 JHANG A466 DI J145 REGET N644 LEMOD A909 NINOP B475 DOLOS B449 MAMED P130 DOLUM/N0491F360 P130 REBLO UM11 CRM UW71 ILHAN UT79 DEREL UL602 MAKOL Q12 ERDOM Y520 UTEKA L610 DONIV DCT PARAK DCT LITKU/N0465F240 Y301 KREMI/N0404F140 B45 BILNA/N0278F080 L617 REGLI/N0477F380 T720 MOLIL DCT MOTAD N133 PENOR DCT ARMOD/N0488F370 Z228 NILUG |
| Aircraft | B77W/H-SDE1E2E3FGHIJ2J3J4J5M1RWXY/LB1D1 |
Departure
| Time | N/A |
|---|---|
| Airport | Denpasar I Gusti Ngurah Rai International Airport (WADD) |
Arrival
| Time | 2026-05-07 06:03 |
|---|---|
| Airport | Stockholm-Arlanda Airport (ESSA) |
| Time | Latitude | Longitude | Altitude | Speed | Heading |
|---|---|---|---|---|---|
| 2026-05-07 05:39 | 58.73107 | 17.84656 | 10050 ft | 280 kts | 12° |
| 2026-05-07 05:40 | 58.74992 | 17.85547 | 10048 ft | 280 kts | 11° |
| 2026-05-07 05:40 | 58.76896 | 17.86410 | 10062 ft | 281 kts | 11° |
| 2026-05-07 05:40 | 58.78794 | 17.87257 | 10051 ft | 278 kts | 11° |
| 2026-05-07 05:40 | 58.80678 | 17.88092 | 10043 ft | 276 kts | 11° |
| 2026-05-07 05:41 | 58.82506 | 17.89121 | 10036 ft | 274 kts | 20° |
| 2026-05-07 05:41 | 58.84219 | 17.90649 | 10042 ft | 277 kts | 25° |
| 2026-05-07 05:41 | 58.85952 | 17.92350 | 10043 ft | 281 kts | 25° |
| 2026-05-07 05:41 | 58.87690 | 17.94070 | 10039 ft | 281 kts | 25° |
| 2026-05-07 05:42 | 58.89431 | 17.95773 | 10041 ft | 280 kts | 25° |
| 2026-05-07 05:42 | 58.91177 | 17.97459 | 10038 ft | 280 kts | 24° |
| 2026-05-07 05:42 | 58.92916 | 17.99131 | 10035 ft | 279 kts | 24° |
| 2026-05-07 05:42 | 58.94658 | 18.00797 | 10038 ft | 278 kts | 24° |
| 2026-05-07 05:43 | 58.96394 | 18.02456 | 10046 ft | 278 kts | 24° |
| 2026-05-07 05:43 | 58.98135 | 18.04109 | 10039 ft | 278 kts | 24° |
| 2026-05-07 05:43 | 58.99857 | 18.05746 | 10038 ft | 278 kts | 24° |
| 2026-05-07 05:43 | 59.01594 | 18.07400 | 10036 ft | 278 kts | 24° |
| 2026-05-07 05:44 | 59.03333 | 18.09056 | 10043 ft | 278 kts | 24° |
| 2026-05-07 05:44 | 59.05074 | 18.10715 | 10041 ft | 279 kts | 24° |
| 2026-05-07 05:44 | 59.06813 | 18.12376 | 10046 ft | 279 kts | 24° |
| 2026-05-07 05:44 | 59.08556 | 18.14041 | 10046 ft | 279 kts | 24° |
| 2026-05-07 05:45 | 59.10340 | 18.15374 | 10030 ft | 271 kts | 6° |
| 2026-05-07 05:45 | 59.12214 | 18.15664 | 10058 ft | 274 kts | 0° |
| 2026-05-07 05:45 | 59.14144 | 18.15843 | 10060 ft | 278 kts | 0° |
| 2026-05-07 05:45 | 59.15425 | 18.15966 | 10052 ft | 278 kts | 0° |
| 2026-05-07 05:46 | 59.17997 | 18.16225 | 10042 ft | 276 kts | 0° |
| 2026-05-07 05:46 | 59.19907 | 18.16428 | 10027 ft | 274 kts | 0° |
| 2026-05-07 05:46 | 59.21805 | 18.16637 | 9844 ft | 272 kts | 0° |
| 2026-05-07 05:46 | 59.23690 | 18.16849 | 9512 ft | 271 kts | 1° |
| 2026-05-07 05:47 | 59.24933 | 18.16991 | 9286 ft | 270 kts | 1° |
| 2026-05-07 05:47 | 59.27437 | 18.17279 | 8854 ft | 268 kts | 1° |
| 2026-05-07 05:47 | 59.28669 | 18.17423 | 8660 ft | 267 kts | 1° |
| 2026-05-07 05:47 | 59.31108 | 18.17709 | 8266 ft | 264 kts | 2° |
| 2026-05-07 05:48 | 59.32351 | 18.17855 | 8065 ft | 263 kts | 2° |
| 2026-05-07 05:48 | 59.34513 | 18.18110 | 7714 ft | 261 kts | 2° |
| 2026-05-07 05:48 | 59.36321 | 18.18324 | 7423 ft | 260 kts | 2° |
| 2026-05-07 05:48 | 59.37534 | 18.18467 | 7237 ft | 259 kts | 2° |
| 2026-05-07 05:49 | 59.39328 | 18.18680 | 6938 ft | 257 kts | 3° |
| 2026-05-07 05:49 | 59.41103 | 18.18890 | 6664 ft | 255 kts | 3° |
| 2026-05-07 05:49 | 59.42849 | 18.19098 | 6388 ft | 253 kts | 4° |
| 2026-05-07 05:49 | 59.44586 | 18.19305 | 6236 ft | 246 kts | 4° |
| 2026-05-07 05:50 | 59.46288 | 18.19508 | 6013 ft | 242 kts | 4° |
| 2026-05-07 05:50 | 59.47970 | 18.19708 | 5674 ft | 243 kts | 4° |
| 2026-05-07 05:50 | 59.49655 | 18.19910 | 5347 ft | 243 kts | 4° |
| 2026-05-07 05:50 | 59.51350 | 18.20112 | 5047 ft | 243 kts | 4° |
| 2026-05-07 05:51 | 59.53037 | 18.20317 | 4731 ft | 243 kts | 5° |
| 2026-05-07 05:51 | 59.54712 | 18.20763 | 4422 ft | 243 kts | 11° |
| 2026-05-07 05:51 | 59.56368 | 18.21376 | 4174 ft | 240 kts | 11° |
| 2026-05-07 05:51 | 59.57981 | 18.21993 | 4001 ft | 234 kts | 11° |
| 2026-05-07 05:52 | 59.59549 | 18.22588 | 3752 ft | 231 kts | 11° |
| 2026-05-07 05:52 | 59.61116 | 18.23176 | 3614 ft | 225 kts | 11° |
| 2026-05-07 05:52 | 59.62639 | 18.23744 | 3549 ft | 223 kts | 11° |
| 2026-05-07 05:52 | 59.64209 | 18.24326 | 3527 ft | 233 kts | 11° |
| 2026-05-07 05:53 | 59.65820 | 18.24921 | 3505 ft | 237 kts | 11° |
| 2026-05-07 05:53 | 59.67448 | 18.25520 | 3444 ft | 237 kts | 11° |
| 2026-05-07 05:53 | 59.69067 | 18.26115 | 3394 ft | 237 kts | 11° |
| 2026-05-07 05:53 | 59.70688 | 18.26710 | 3337 ft | 236 kts | 11° |
| 2026-05-07 05:54 | 59.72304 | 18.27304 | 3278 ft | 236 kts | 11° |
| 2026-05-07 05:54 | 59.73922 | 18.27899 | 3243 ft | 236 kts | 10° |
| 2026-05-07 05:54 | 59.75542 | 18.28494 | 3184 ft | 237 kts | 10° |
| 2026-05-07 05:54 | 59.77141 | 18.29081 | 3126 ft | 236 kts | 11° |
| 2026-05-07 05:55 | 59.78757 | 18.29676 | 3068 ft | 236 kts | 10° |
| 2026-05-07 05:55 | 59.80372 | 18.30271 | 3016 ft | 235 kts | 10° |
| 2026-05-07 05:55 | 59.81982 | 18.30865 | 2967 ft | 236 kts | 10° |
| 2026-05-07 05:55 | 59.83600 | 18.31439 | 2904 ft | 234 kts | 5° |
| 2026-05-07 05:56 | 59.85184 | 18.30961 | 2811 ft | 231 kts | 330° |
| 2026-05-07 05:56 | 59.86332 | 18.28849 | 2762 ft | 226 kts | 298° |
| 2026-05-07 05:56 | 59.86752 | 18.25891 | 2728 ft | 223 kts | 269° |
| 2026-05-07 05:56 | 59.86482 | 18.22879 | 2698 ft | 223 kts | 245° |
| 2026-05-07 05:57 | 59.85754 | 18.20167 | 2629 ft | 222 kts | 238° |
| 2026-05-07 05:57 | 59.84954 | 18.17550 | 2591 ft | 220 kts | 238° |
| 2026-05-07 05:57 | 59.84182 | 18.14970 | 2530 ft | 219 kts | 238° |
| 2026-05-07 05:57 | 59.83386 | 18.12362 | 2506 ft | 217 kts | 238° |
| 2026-05-07 05:58 | 59.82622 | 18.09826 | 2517 ft | 209 kts | 238° |
| 2026-05-07 05:58 | 59.81903 | 18.07418 | 2511 ft | 202 kts | 238° |
| 2026-05-07 05:58 | 59.81203 | 18.05073 | 2448 ft | 191 kts | 238° |
| 2026-05-07 05:58 | 59.80542 | 18.02875 | 2527 ft | 184 kts | 235° |
| 2026-05-07 05:59 | 59.79579 | 18.01285 | 2526 ft | 184 kts | 195° |
| 2026-05-07 05:59 | 59.78308 | 18.00855 | 2509 ft | 187 kts | 190° |
| 2026-05-07 05:59 | 59.77026 | 18.00352 | 2511 ft | 187 kts | 193° |
| 2026-05-07 05:59 | 59.75763 | 17.99847 | 2415 ft | 186 kts | 191° |
| 2026-05-07 06:00 | 59.74492 | 17.99388 | 2109 ft | 181 kts | 191° |
| 2026-05-07 06:00 | 59.73292 | 17.98950 | 1852 ft | 168 kts | 191° |
| 2026-05-07 06:00 | 59.72198 | 17.98550 | 1664 ft | 152 kts | 191° |
| 2026-05-07 06:00 | 59.71213 | 17.98190 | 1439 ft | 139 kts | 191° |
| 2026-05-07 06:01 | 59.70250 | 17.97842 | 1269 ft | 139 kts | 191° |
| 2026-05-07 06:01 | 59.69304 | 17.97494 | 1058 ft | 141 kts | 190° |
| 2026-05-07 06:01 | 59.68349 | 17.97146 | 844 ft | 138 kts | 189° |
| 2026-05-07 06:01 | 59.67399 | 17.96801 | 661 ft | 140 kts | 189° |
| 2026-05-07 06:02 | 59.66441 | 17.96458 | 470 ft | 139 kts | 190° |
| 2026-05-07 06:02 | 59.65498 | 17.96099 | 255 ft | 137 kts | 186° |
| 2026-05-07 06:02 | 59.64566 | 17.95767 | 116 ft | 132 kts | 187° |
| 2026-05-07 06:02 | 59.63771 | 17.95485 | 118 ft | 95 kts | 191° |
| 2026-05-07 06:03 | 59.63272 | 17.95302 | 128 ft | 51 kts | 190° |
| 2026-05-07 06:03 | 59.63006 | 17.95142 | 140 ft | 31 kts | 211° |
| 2026-05-07 06:03 | 59.62880 | 17.94953 | 141 ft | 5 kts | 221° |
| 2026-05-07 06:03 | 59.62861 | 17.94914 | 141 ft | 7 kts | 231° |
| 2026-05-07 06:04 | 59.62854 | 17.94820 | 141 ft | 7 kts | 291° |
| 2026-05-07 06:04 | 59.62898 | 17.94772 | 142 ft | 8 kts | 354° |
| 2026-05-07 06:04 | 59.62963 | 17.94778 | 140 ft | 11 kts | 5° |
| 2026-05-07 06:04 | 59.63048 | 17.94813 | 137 ft | 14 kts | 14° |
| 2026-05-07 06:05 | 59.63153 | 17.94860 | 130 ft | 17 kts | 11° |
| 2026-05-07 06:05 | 59.63285 | 17.94907 | 127 ft | 21 kts | 9° |
| 2026-05-07 06:05 | 59.63438 | 17.94957 | 123 ft | 23 kts | 11° |
| 2026-05-07 06:05 | 59.63599 | 17.95018 | 119 ft | 23 kts | 10° |
| 2026-05-07 06:06 | 59.63759 | 17.95072 | 115 ft | 23 kts | 9° |
| 2026-05-07 06:06 | 59.63919 | 17.95129 | 113 ft | 23 kts | 12° |
| 2026-05-07 06:06 | 59.64080 | 17.95194 | 111 ft | 23 kts | 9° |
| 2026-05-07 06:06 | 59.64240 | 17.95247 | 109 ft | 23 kts | 10° |
| 2026-05-07 06:07 | 59.64401 | 17.95308 | 110 ft | 23 kts | 11° |
| 2026-05-07 06:07 | 59.64561 | 17.95369 | 110 ft | 23 kts | 11° |
| 2026-05-07 06:07 | 59.64722 | 17.95426 | 109 ft | 23 kts | 10° |
| 2026-05-07 06:07 | 59.64882 | 17.95482 | 112 ft | 23 kts | 10° |
| 2026-05-07 06:08 | 59.65044 | 17.95503 | 118 ft | 23 kts | 352° |
| 2026-05-07 06:08 | 59.65203 | 17.95431 | 121 ft | 23 kts | 346° |
| 2026-05-07 06:08 | 59.65361 | 17.95351 | 128 ft | 23 kts | 345° |
| 2026-05-07 06:08 | 59.65509 | 17.95267 | 132 ft | 13 kts | 345° |
| 2026-05-07 06:09 | 59.65597 | 17.95222 | 127 ft | 13 kts | 346° |
| 2026-05-07 06:09 | 59.65680 | 17.95178 | 128 ft | 11 kts | 344° |
| 2026-05-07 06:09 | 59.65744 | 17.95102 | 127 ft | 11 kts | 304° |
| 2026-05-07 06:09 | 59.65745 | 17.94956 | 127 ft | 11 kts | 254° |
| 2026-05-07 06:10 | 59.65722 | 17.94808 | 127 ft | 11 kts | 255° |
| 2026-05-07 06:10 | 59.65704 | 17.94660 | 124 ft | 11 kts | 256° |
| 2026-05-07 06:10 | 59.65685 | 17.94509 | 128 ft | 12 kts | 256° |
| 2026-05-07 06:10 | 59.65660 | 17.94315 | 127 ft | 17 kts | 256° |
| 2026-05-07 06:11 | 59.65631 | 17.94092 | 122 ft | 17 kts | 256° |
| 2026-05-07 06:11 | 59.65602 | 17.93860 | 116 ft | 18 kts | 256° |
| 2026-05-07 06:11 | 59.65572 | 17.93616 | 114 ft | 18 kts | 256° |
| 2026-05-07 06:11 | 59.65552 | 17.93453 | 115 ft | 10 kts | 256° |
| 2026-05-07 06:12 | 59.65522 | 17.93351 | 114 ft | 9 kts | 206° |
| 2026-05-07 06:12 | 59.65460 | 17.93339 | 113 ft | 9 kts | 174° |
| 2026-05-07 06:12 | 59.65400 | 17.93367 | 112 ft | 8 kts | 165° |
| 2026-05-07 06:12 | 59.65361 | 17.93389 | 112 ft | 4 kts | 165° |
| 2026-05-07 06:13 | 59.65335 | 17.93403 | 113 ft | 4 kts | 164° |
| 2026-05-07 06:13 | 59.65316 | 17.93433 | 113 ft | 4 kts | 129° |
| 2026-05-07 06:13 | 59.65305 | 17.93477 | 114 ft | 4 kts | 112° |
| 2026-05-07 06:13 | 59.65297 | 17.93521 | 114 ft | 2 kts | 108° |
| 2026-05-07 06:14 | 59.65294 | 17.93540 | 113 ft | 1 kts | 109° |
| 2026-05-07 06:14 | 59.65292 | 17.93552 | 113 ft | 0 kts | 109° |
| 2026-05-07 06:14 | 59.65292 | 17.93551 | 113 ft | 0 kts | 109° |